sensor_id;sensor_type;location;lat;lon;timestamp;temperature;humidity
28863;DHT22;15994;51.796;13.006;2023-05-29T00:00:57;13.40;96.10
28863;DHT22;15994;51.796;13.006;2023-05-29T00:03:25;13.40;96.30
28863;DHT22;15994;51.796;13.006;2023-05-29T00:05:58;13.40;96.50
28863;DHT22;15994;51.796;13.006;2023-05-29T00:08:32;13.30;96.90
28863;DHT22;15994;51.796;13.006;2023-05-29T00:11:00;13.20;97.00
28863;DHT22;15994;51.796;13.006;2023-05-29T00:13:34;13.20;97.30
28863;DHT22;15994;51.796;13.006;2023-05-29T00:16:25;13.10;97.50
28863;DHT22;15994;51.796;13.006;2023-05-29T00:18:55;13.10;97.80
28863;DHT22;15994;51.796;13.006;2023-05-29T00:21:24;13.00;98.00
28863;DHT22;15994;51.796;13.006;2023-05-29T00:24:17;13.00;98.10
28863;DHT22;15994;51.796;13.006;2023-05-29T00:26:51;13.00;98.20
28863;DHT22;15994;51.796;13.006;2023-05-29T00:29:29;13.10;98.30
28863;DHT22;15994;51.796;13.006;2023-05-29T00:31:56;13.00;98.50
28863;DHT22;15994;51.796;13.006;2023-05-29T00:34:24;13.00;98.60
28863;DHT22;15994;51.796;13.006;2023-05-29T00:36:54;13.00;98.70
28863;DHT22;15994;51.796;13.006;2023-05-29T00:39:23;13.00;98.80
28863;DHT22;15994;51.796;13.006;2023-05-29T00:41:54;13.00;98.90
28863;DHT22;15994;51.796;13.006;2023-05-29T00:44:24;12.90;98.90
28863;DHT22;15994;51.796;13.006;2023-05-29T00:46:53;12.90;99.10
28863;DHT22;15994;51.796;13.006;2023-05-29T00:49:29;12.90;99.20
28863;DHT22;15994;51.796;13.006;2023-05-29T00:52:14;12.80;99.40
28863;DHT22;15994;51.796;13.006;2023-05-29T00:54:56;12.80;99.50
28863;DHT22;15994;51.796;13.006;2023-05-29T00:57:26;12.70;99.70
28863;DHT22;15994;51.796;13.006;2023-05-29T00:59:55;12.60;99.90
28863;DHT22;15994;51.796;13.006;2023-05-29T01:02:27;12.60;99.80
28863;DHT22;15994;51.796;13.006;2023-05-29T01:04:57;12.60;99.90
28863;DHT22;15994;51.796;13.006;2023-05-29T01:07:24;12.50;99.90
28863;DHT22;15994;51.796;13.006;2023-05-29T01:10:10;12.50;99.90
28863;DHT22;15994;51.796;13.006;2023-05-29T01:21:36;12.30;99.90
28863;DHT22;15994;51.796;13.006;2023-05-29T01:27:17;12.20;99.90
28863;DHT22;15994;51.796;13.006;2023-05-29T01:29:54;12.20;99.90
28863;DHT22;15994;51.796;13.006;2023-05-29T01:32:24;12.20;99.90
28863;DHT22;15994;51.796;13.006;2023-05-29T01:34:53;12.10;99.90
28863;DHT22;15994;51.796;13.006;2023-05-29T01:37:33;12.10;99.90
28863;DHT22;15994;51.796;13.006;2023-05-29T01:40:01;12.00;99.90
28863;DHT22;15994;51.796;13.006;2023-05-29T01:42:28;11.90;99.90
28863;DHT22;15994;51.796;13.006;2023-05-29T01:45:10;11.90;99.90
28863;DHT22;15994;51.796;13.006;2023-05-29T01:47:38;11.80;99.90
28863;DHT22;15994;51.796;13.006;2023-05-29T01:50:08;11.80;99.90
28863;DHT22;15994;51.796;13.006;2023-05-29T01:52:41;11.70;99.90
28863;DHT22;15994;51.796;13.006;2023-05-29T01:55:08;11.70;99.90
28863;DHT22;15994;51.796;13.006;2023-05-29T01:58:12;11.70;99.90
28863;DHT22;15994;51.796;13.006;2023-05-29T02:00:50;11.60;99.90
28863;DHT22;15994;51.796;13.006;2023-05-29T02:03:32;11.60;99.90
28863;DHT22;15994;51.796;13.006;2023-05-29T02:06:31;11.50;99.90
28863;DHT22;15994;51.796;13.006;2023-05-29T02:08:58;11.40;99.90
28863;DHT22;15994;51.796;13.006;2023-05-29T02:11:25;11.40;99.90
28863;DHT22;15994;51.796;13.006;2023-05-29T02:14:05;11.40;99.90
28863;DHT22;15994;51.796;13.006;2023-05-29T02:16:39;11.30;99.90
28863;DHT22;15994;51.796;13.006;2023-05-29T02:19:09;11.30;99.90
28863;DHT22;15994;51.796;13.006;2023-05-29T02:21:52;11.30;99.90
28863;DHT22;15994;51.796;13.006;2023-05-29T02:24:20;11.30;99.90
28863;DHT22;15994;51.796;13.006;2023-05-29T02:26:51;11.30;99.90
28863;DHT22;15994;51.796;13.006;2023-05-29T02:29:25;11.20;99.90
28863;DHT22;15994;51.796;13.006;2023-05-29T02:31:57;11.20;99.90
28863;DHT22;15994;51.796;13.006;2023-05-29T02:34:39;11.20;99.90
28863;DHT22;15994;51.796;13.006;2023-05-29T02:37:08;11.10;99.90
28863;DHT22;15994;51.796;13.006;2023-05-29T02:39:54;11.10;99.90
28863;DHT22;15994;51.796;13.006;2023-05-29T02:42:32;11.10;99.90
28863;DHT22;15994;51.796;13.006;2023-05-29T02:45:01;11.10;99.90
28863;DHT22;15994;51.796;13.006;2023-05-29T02:47:28;11.10;99.90
28863;DHT22;15994;51.796;13.006;2023-05-29T02:49:56;11.20;99.90
28863;DHT22;15994;51.796;13.006;2023-05-29T02:52:28;11.20;99.90
28863;DHT22;15994;51.796;13.006;2023-05-29T02:55:04;11.20;99.90
28863;DHT22;15994;51.796;13.006;2023-05-29T02:57:45;11.20;99.90
28863;DHT22;15994;51.796;13.006;2023-05-29T03:00:14;11.20;99.90
28863;DHT22;15994;51.796;13.006;2023-05-29T03:02:55;11.10;99.90
28863;DHT22;15994;51.796;13.006;2023-05-29T03:05:26;11.10;99.90
28863;DHT22;15994;51.796;13.006;2023-05-29T03:08:05;11.10;99.90
28863;DHT22;15994;51.796;13.006;2023-05-29T03:10:51;11.00;99.90
28863;DHT22;15994;51.796;13.006;2023-05-29T03:13:23;11.00;99.90
28863;DHT22;15994;51.796;13.006;2023-05-29T03:15:51;11.10;99.90
28863;DHT22;15994;51.796;13.006;2023-05-29T03:18:23;11.00;99.90
28863;DHT22;15994;51.796;13.006;2023-05-29T03:21:04;11.00;99.90
28863;DHT22;15994;51.796;13.006;2023-05-29T03:23:43;11.00;99.90
28863;DHT22;15994;51.796;13.006;2023-05-29T03:26:10;11.00;99.90
28863;DHT22;15994;51.796;13.006;2023-05-29T03:28:39;11.00;99.90
28863;DHT22;15994;51.796;13.006;2023-05-29T03:31:05;11.00;99.90
28863;DHT22;15994;51.796;13.006;2023-05-29T03:33:47;11.00;99.90
28863;DHT22;15994;51.796;13.006;2023-05-29T03:36:13;11.00;99.90
28863;DHT22;15994;51.796;13.006;2023-05-29T03:38:42;11.00;99.90
28863;DHT22;15994;51.796;13.006;2023-05-29T03:41:10;11.10;99.90
28863;DHT22;15994;51.796;13.006;2023-05-29T03:43:42;11.10;99.90
28863;DHT22;15994;51.796;13.006;2023-05-29T03:46:09;11.10;99.90
28863;DHT22;15994;51.796;13.006;2023-05-29T03:48:35;11.10;99.90
28863;DHT22;15994;51.796;13.006;2023-05-29T03:51:02;11.10;99.90
28863;DHT22;15994;51.796;13.006;2023-05-29T03:53:29;11.10;99.90
28863;DHT22;15994;51.796;13.006;2023-05-29T03:55:57;11.20;99.90
28863;DHT22;15994;51.796;13.006;2023-05-29T03:58:25;11.20;99.90
28863;DHT22;15994;51.796;13.006;2023-05-29T04:00:52;11.20;99.90
28863;DHT22;15994;51.796;13.006;2023-05-29T04:03:18;11.20;99.90
28863;DHT22;15994;51.796;13.006;2023-05-29T04:05:45;11.30;99.90
28863;DHT22;15994;51.796;13.006;2023-05-29T04:08:12;11.40;99.90
28863;DHT22;15994;51.796;13.006;2023-05-29T04:10:39;11.40;99.90
28863;DHT22;15994;51.796;13.006;2023-05-29T04:13:06;11.50;99.90
28863;DHT22;15994;51.796;13.006;2023-05-29T04:15:33;11.50;99.90
28863;DHT22;15994;51.796;13.006;2023-05-29T04:18:00;11.60;99.90
28863;DHT22;15994;51.796;13.006;2023-05-29T04:20:27;11.60;99.90
28863;DHT22;15994;51.796;13.006;2023-05-29T04:22:54;11.70;99.90
28863;DHT22;15994;51.796;13.006;2023-05-29T04:25:21;11.70;99.90
28863;DHT22;15994;51.796;13.006;2023-05-29T04:27:49;11.80;99.90
28863;DHT22;15994;51.796;13.006;2023-05-29T04:30:17;11.80;99.90
28863;DHT22;15994;51.796;13.006;2023-05-29T04:32:44;11.90;99.90
28863;DHT22;15994;51.796;13.006;2023-05-29T04:35:12;12.00;99.90
28863;DHT22;15994;51.796;13.006;2023-05-29T04:37:40;12.00;99.90
28863;DHT22;15994;51.796;13.006;2023-05-29T04:40:09;12.10;99.90
28863;DHT22;15994;51.796;13.006;2023-05-29T04:42:37;12.10;99.90
28863;DHT22;15994;51.796;13.006;2023-05-29T04:45:05;12.20;99.90
28863;DHT22;15994;51.796;13.006;2023-05-29T04:47:32;12.20;99.90
28863;DHT22;15994;51.796;13.006;2023-05-29T04:49:59;12.30;99.90
28863;DHT22;15994;51.796;13.006;2023-05-29T04:52:26;12.30;99.90
28863;DHT22;15994;51.796;13.006;2023-05-29T04:54:56;12.40;99.90
28863;DHT22;15994;51.796;13.006;2023-05-29T04:57:23;12.50;99.90
28863;DHT22;15994;51.796;13.006;2023-05-29T04:59:51;12.50;99.90
28863;DHT22;15994;51.796;13.006;2023-05-29T05:02:17;12.70;99.90
28863;DHT22;15994;51.796;13.006;2023-05-29T05:04:44;12.70;99.90
28863;DHT22;15994;51.796;13.006;2023-05-29T05:07:12;12.80;99.90
28863;DHT22;15994;51.796;13.006;2023-05-29T05:09:41;12.90;99.90
28863;DHT22;15994;51.796;13.006;2023-05-29T05:12:08;13.00;99.90
28863;DHT22;15994;51.796;13.006;2023-05-29T05:14:36;13.10;99.90
28863;DHT22;15994;51.796;13.006;2023-05-29T05:17:03;13.10;99.90
28863;DHT22;15994;51.796;13.006;2023-05-29T05:19:30;13.20;99.90
28863;DHT22;15994;51.796;13.006;2023-05-29T05:21:57;13.30;99.90
28863;DHT22;15994;51.796;13.006;2023-05-29T05:24:24;13.40;99.90
28863;DHT22;15994;51.796;13.006;2023-05-29T05:26:51;13.60;99.90
28863;DHT22;15994;51.796;13.006;2023-05-29T05:29:18;13.60;99.90
28863;DHT22;15994;51.796;13.006;2023-05-29T05:31:45;13.80;99.90
28863;DHT22;15994;51.796;13.006;2023-05-29T05:34:13;13.90;99.90
28863;DHT22;15994;51.796;13.006;2023-05-29T05:36:39;14.00;99.90
28863;DHT22;15994;51.796;13.006;2023-05-29T05:39:06;14.10;99.90
28863;DHT22;15994;51.796;13.006;2023-05-29T05:41:34;14.20;99.90
28863;DHT22;15994;51.796;13.006;2023-05-29T05:44:01;14.30;99.90
28863;DHT22;15994;51.796;13.006;2023-05-29T05:46:28;14.30;99.90
28863;DHT22;15994;51.796;13.006;2023-05-29T05:48:55;14.40;99.80
28863;DHT22;15994;51.796;13.006;2023-05-29T05:51:24;14.50;99.50
28863;DHT22;15994;51.796;13.006;2023-05-29T05:53:51;14.50;99.40
28863;DHT22;15994;51.796;13.006;2023-05-29T05:56:18;14.60;99.50
28863;DHT22;15994;51.796;13.006;2023-05-29T05:58:44;14.60;99.10
28863;DHT22;15994;51.796;13.006;2023-05-29T06:01:11;14.70;99.10
28863;DHT22;15994;51.796;13.006;2023-05-29T06:03:38;14.80;99.10
28863;DHT22;15994;51.796;13.006;2023-05-29T06:06:06;14.80;98.50
28863;DHT22;15994;51.796;13.006;2023-05-29T06:08:34;14.90;98.60
28863;DHT22;15994;51.796;13.006;2023-05-29T06:11:01;15.00;98.30
28863;DHT22;15994;51.796;13.006;2023-05-29T06:13:28;15.10;98.00
28863;DHT22;15994;51.796;13.006;2023-05-29T06:15:55;15.30;98.30
28863;DHT22;15994;51.796;13.006;2023-05-29T06:18:21;15.30;98.00
28863;DHT22;15994;51.796;13.006;2023-05-29T06:20:48;15.40;97.50
28863;DHT22;15994;51.796;13.006;2023-05-29T06:23:15;15.40;97.60
28863;DHT22;15994;51.796;13.006;2023-05-29T06:25:42;15.40;97.50
28863;DHT22;15994;51.796;13.006;2023-05-29T06:28:09;15.60;97.60
28863;DHT22;15994;51.796;13.006;2023-05-29T06:30:36;15.80;97.20
28863;DHT22;15994;51.796;13.006;2023-05-29T06:33:03;15.70;97.00
28863;DHT22;15994;51.796;13.006;2023-05-29T06:35:30;15.80;96.80
28863;DHT22;15994;51.796;13.006;2023-05-29T06:37:56;16.00;96.70
28863;DHT22;15994;51.796;13.006;2023-05-29T06:40:23;16.10;96.70
28863;DHT22;15994;51.796;13.006;2023-05-29T06:42:50;16.30;96.70
28863;DHT22;15994;51.796;13.006;2023-05-29T06:45:17;16.40;96.00
28863;DHT22;15994;51.796;13.006;2023-05-29T06:47:43;16.50;96.10
28863;DHT22;15994;51.796;13.006;2023-05-29T06:50:10;16.70;96.10
28863;DHT22;15994;51.796;13.006;2023-05-29T06:52:37;16.80;95.30
28863;DHT22;15994;51.796;13.006;2023-05-29T06:55:06;17.00;96.00
28863;DHT22;15994;51.796;13.006;2023-05-29T06:57:33;17.20;95.70
28863;DHT22;15994;51.796;13.006;2023-05-29T06:59:59;17.30;95.90
28863;DHT22;15994;51.796;13.006;2023-05-29T07:02:26;17.60;95.20
28863;DHT22;15994;51.796;13.006;2023-05-29T07:04:53;17.80;94.80
28863;DHT22;15994;51.796;13.006;2023-05-29T07:07:20;17.90;93.30
28863;DHT22;15994;51.796;13.006;2023-05-29T07:09:47;18.20;93.70
28863;DHT22;15994;51.796;13.006;2023-05-29T07:12:14;18.20;92.20
28863;DHT22;15994;51.796;13.006;2023-05-29T07:14:41;18.20;92.40
28863;DHT22;15994;51.796;13.006;2023-05-29T07:17:07;18.10;91.60
28863;DHT22;15994;51.796;13.006;2023-05-29T07:19:34;18.20;91.60
28863;DHT22;15994;51.796;13.006;2023-05-29T07:22:01;18.20;92.00
28863;DHT22;15994;51.796;13.006;2023-05-29T07:24:28;18.20;91.60
28863;DHT22;15994;51.796;13.006;2023-05-29T07:26:55;18.20;92.00
28863;DHT22;15994;51.796;13.006;2023-05-29T07:29:22;18.20;92.40
28863;DHT22;15994;51.796;13.006;2023-05-29T07:31:50;18.30;91.30
28863;DHT22;15994;51.796;13.006;2023-05-29T07:34:17;18.40;91.30
28863;DHT22;15994;51.796;13.006;2023-05-29T07:37:02;18.50;91.20
28863;DHT22;15994;51.796;13.006;2023-05-29T07:39:34;18.60;91.00
28863;DHT22;15994;51.796;13.006;2023-05-29T07:42:02;18.50;91.00
28863;DHT22;15994;51.796;13.006;2023-05-29T07:44:29;18.50;91.20
28863;DHT22;15994;51.796;13.006;2023-05-29T07:46:56;18.40;91.50
28863;DHT22;15994;51.796;13.006;2023-05-29T07:49:23;18.50;91.00
28863;DHT22;15994;51.796;13.006;2023-05-29T07:51:50;18.50;91.10
28863;DHT22;15994;51.796;13.006;2023-05-29T07:54:17;18.50;90.50
28863;DHT22;15994;51.796;13.006;2023-05-29T07:56:46;18.60;89.80
28863;DHT22;15994;51.796;13.006;2023-05-29T07:59:13;18.70;89.80
28863;DHT22;15994;51.796;13.006;2023-05-29T08:01:40;18.70;89.80
28863;DHT22;15994;51.796;13.006;2023-05-29T08:04:08;18.80;88.30
28863;DHT22;15994;51.796;13.006;2023-05-29T08:06:34;18.80;88.10
28863;DHT22;15994;51.796;13.006;2023-05-29T08:09:02;18.90;87.70
28863;DHT22;15994;51.796;13.006;2023-05-29T08:11:30;19.00;88.20
28863;DHT22;15994;51.796;13.006;2023-05-29T08:13:57;19.10;89.30
28863;DHT22;15994;51.796;13.006;2023-05-29T08:16:24;19.30;87.40
28863;DHT22;15994;51.796;13.006;2023-05-29T08:18:52;19.30;87.00
28863;DHT22;15994;51.796;13.006;2023-05-29T08:21:20;19.30;87.40
28863;DHT22;15994;51.796;13.006;2023-05-29T08:23:47;19.30;87.10
28863;DHT22;15994;51.796;13.006;2023-05-29T08:26:14;19.50;87.50
28863;DHT22;15994;51.796;13.006;2023-05-29T08:28:41;19.60;87.40
28863;DHT22;15994;51.796;13.006;2023-05-29T08:31:08;19.50;85.50
28863;DHT22;15994;51.796;13.006;2023-05-29T08:33:36;19.50;86.00
28863;DHT22;15994;51.796;13.006;2023-05-29T08:36:03;19.60;85.40
28863;DHT22;15994;51.796;13.006;2023-05-29T08:38:30;19.60;84.40
28863;DHT22;15994;51.796;13.006;2023-05-29T08:40:57;19.60;85.30
28863;DHT22;15994;51.796;13.006;2023-05-29T08:43:24;19.60;85.90
28863;DHT22;15994;51.796;13.006;2023-05-29T08:45:54;19.70;85.10
28863;DHT22;15994;51.796;13.006;2023-05-29T08:48:25;19.60;84.70
28863;DHT22;15994;51.796;13.006;2023-05-29T08:50:54;19.70;85.10
28863;DHT22;15994;51.796;13.006;2023-05-29T08:53:23;19.70;84.90
28863;DHT22;15994;51.796;13.006;2023-05-29T08:55:51;19.70;84.30
28863;DHT22;15994;51.796;13.006;2023-05-29T08:58:22;19.70;85.10
28863;DHT22;15994;51.796;13.006;2023-05-29T09:00:50;19.80;85.30
28863;DHT22;15994;51.796;13.006;2023-05-29T09:03:19;19.90;83.10
28863;DHT22;15994;51.796;13.006;2023-05-29T09:05:49;20.00;84.40
28863;DHT22;15994;51.796;13.006;2023-05-29T09:08:16;20.00;84.70
28863;DHT22;15994;51.796;13.006;2023-05-29T09:10:44;20.10;84.20
28863;DHT22;15994;51.796;13.006;2023-05-29T09:13:12;20.20;83.50
28863;DHT22;15994;51.796;13.006;2023-05-29T09:15:40;20.10;83.20
28863;DHT22;15994;51.796;13.006;2023-05-29T09:18:08;20.00;83.20
28863;DHT22;15994;51.796;13.006;2023-05-29T09:20:36;19.90;84.40
28863;DHT22;15994;51.796;13.006;2023-05-29T09:23:05;20.10;84.40
28863;DHT22;15994;51.796;13.006;2023-05-29T09:25:36;20.30;83.60
28863;DHT22;15994;51.796;13.006;2023-05-29T09:28:08;20.50;83.80
28863;DHT22;15994;51.796;13.006;2023-05-29T09:30:44;20.50;83.90
28863;DHT22;15994;51.796;13.006;2023-05-29T09:33:14;20.30;83.30
28863;DHT22;15994;51.796;13.006;2023-05-29T09:35:46;20.50;85.40
28863;DHT22;15994;51.796;13.006;2023-05-29T09:38:14;20.60;84.00
28863;DHT22;15994;51.796;13.006;2023-05-29T09:40:42;20.50;85.00
28863;DHT22;15994;51.796;13.006;2023-05-29T09:43:14;20.50;85.10
28863;DHT22;15994;51.796;13.006;2023-05-29T09:45:44;20.60;85.00
28863;DHT22;15994;51.796;13.006;2023-05-29T09:48:16;20.70;83.90
28863;DHT22;15994;51.796;13.006;2023-05-29T09:50:44;20.60;83.10
28863;DHT22;15994;51.796;13.006;2023-05-29T09:53:21;20.70;84.10
28863;DHT22;15994;51.796;13.006;2023-05-29T09:55:50;20.90;83.80
28863;DHT22;15994;51.796;13.006;2023-05-29T09:58:19;20.70;84.00
28863;DHT22;15994;51.796;13.006;2023-05-29T10:00:46;20.50;83.40
28863;DHT22;15994;51.796;13.006;2023-05-29T10:03:14;20.70;84.70
28863;DHT22;15994;51.796;13.006;2023-05-29T10:05:41;20.80;84.10
28863;DHT22;15994;51.796;13.006;2023-05-29T10:08:12;21.00;84.20
28863;DHT22;15994;51.796;13.006;2023-05-29T10:10:44;20.90;83.80
28863;DHT22;15994;51.796;13.006;2023-05-29T10:13:14;21.00;84.10
28863;DHT22;15994;51.796;13.006;2023-05-29T10:15:45;21.20;85.10
28863;DHT22;15994;51.796;13.006;2023-05-29T10:18:26;21.20;84.30
28863;DHT22;15994;51.796;13.006;2023-05-29T10:20:55;21.20;83.50
28863;DHT22;15994;51.796;13.006;2023-05-29T10:23:25;21.40;83.90
28863;DHT22;15994;51.796;13.006;2023-05-29T10:25:53;21.60;83.90
28863;DHT22;15994;51.796;13.006;2023-05-29T10:28:22;21.60;83.10
28863;DHT22;15994;51.796;13.006;2023-05-29T10:31:03;21.80;82.40
28863;DHT22;15994;51.796;13.006;2023-05-29T10:33:53;22.10;82.60
28863;DHT22;15994;51.796;13.006;2023-05-29T10:36:26;22.30;81.40
28863;DHT22;15994;51.796;13.006;2023-05-29T10:38:53;22.30;81.70
28863;DHT22;15994;51.796;13.006;2023-05-29T10:43:57;22.30;81.10
28863;DHT22;15994;51.796;13.006;2023-05-29T10:49:17;21.80;82.60
28863;DHT22;15994;51.796;13.006;2023-05-29T10:51:44;21.70;81.80
28863;DHT22;15994;51.796;13.006;2023-05-29T10:54:13;21.70;82.50
28863;DHT22;15994;51.796;13.006;2023-05-29T10:56:44;21.80;82.40
28863;DHT22;15994;51.796;13.006;2023-05-29T10:59:11;21.70;80.90
28863;DHT22;15994;51.796;13.006;2023-05-29T11:01:39;21.90;81.40
28863;DHT22;15994;51.796;13.006;2023-05-29T11:06:43;22.30;79.60
28863;DHT22;15994;51.796;13.006;2023-05-29T11:14:53;22.20;78.50
28863;DHT22;15994;51.796;13.006;2023-05-29T11:20:08;22.10;80.30
28863;DHT22;15994;51.796;13.006;2023-05-29T11:25:13;21.90;79.60
28863;DHT22;15994;51.796;13.006;2023-05-29T11:27:41;21.90;79.80
28863;DHT22;15994;51.796;13.006;2023-05-29T11:30:08;21.90;79.50
28863;DHT22;15994;51.796;13.006;2023-05-29T11:32:36;22.00;79.60
28863;DHT22;15994;51.796;13.006;2023-05-29T11:35:07;22.30;79.80
28863;DHT22;15994;51.796;13.006;2023-05-29T11:37:37;22.60;79.60
28863;DHT22;15994;51.796;13.006;2023-05-29T11:40:06;22.50;78.90
28863;DHT22;15994;51.796;13.006;2023-05-29T11:42:35;22.40;79.20
28863;DHT22;15994;51.796;13.006;2023-05-29T11:45:16;22.70;79.70
28863;DHT22;15994;51.796;13.006;2023-05-29T11:47:58;22.70;77.60
28863;DHT22;15994;51.796;13.006;2023-05-29T11:50:27;22.60;77.20
28863;DHT22;15994;51.796;13.006;2023-05-29T11:52:56;22.50;77.50
28863;DHT22;15994;51.796;13.006;2023-05-29T11:55:25;22.60;78.10
28863;DHT22;15994;51.796;13.006;2023-05-29T11:58:00;22.50;78.00
28863;DHT22;15994;51.796;13.006;2023-05-29T12:00:32;22.60;79.30
28863;DHT22;15994;51.796;13.006;2023-05-29T12:03:02;22.60;78.20
28863;DHT22;15994;51.796;13.006;2023-05-29T12:05:47;22.80;79.30
28863;DHT22;15994;51.796;13.006;2023-05-29T12:08:23;22.50;78.60
28863;DHT22;15994;51.796;13.006;2023-05-29T12:10:51;22.80;79.00
28863;DHT22;15994;51.796;13.006;2023-05-29T12:13:19;22.60;77.80
28863;DHT22;15994;51.796;13.006;2023-05-29T12:15:48;22.80;77.50
28863;DHT22;15994;51.796;13.006;2023-05-29T12:18:15;22.80;77.60
28863;DHT22;15994;51.796;13.006;2023-05-29T12:20:44;22.50;77.80
28863;DHT22;15994;51.796;13.006;2023-05-29T12:23:11;22.70;78.50
28863;DHT22;15994;51.796;13.006;2023-05-29T12:25:39;22.70;78.40
28863;DHT22;15994;51.796;13.006;2023-05-29T12:28:06;22.50;78.60
28863;DHT22;15994;51.796;13.006;2023-05-29T12:30:37;22.20;78.90
28863;DHT22;15994;51.796;13.006;2023-05-29T12:33:05;22.40;78.70
28863;DHT22;15994;51.796;13.006;2023-05-29T12:35:33;22.70;76.80
28863;DHT22;15994;51.796;13.006;2023-05-29T12:38:07;22.90;77.50
28863;DHT22;15994;51.796;13.006;2023-05-29T12:40:35;22.80;80.00
28863;DHT22;15994;51.796;13.006;2023-05-29T12:43:05;22.60;81.10
28863;DHT22;15994;51.796;13.006;2023-05-29T12:45:34;22.70;79.90
28863;DHT22;15994;51.796;13.006;2023-05-29T12:48:08;22.20;81.80
28863;DHT22;15994;51.796;13.006;2023-05-29T12:50:44;22.50;80.80
28863;DHT22;15994;51.796;13.006;2023-05-29T12:53:13;22.40;80.90
28863;DHT22;15994;51.796;13.006;2023-05-29T12:55:49;22.30;81.10
28863;DHT22;15994;51.796;13.006;2023-05-29T12:58:22;22.50;79.80
28863;DHT22;15994;51.796;13.006;2023-05-29T13:00:52;22.50;79.90
28863;DHT22;15994;51.796;13.006;2023-05-29T13:03:21;22.70;80.10
28863;DHT22;15994;51.796;13.006;2023-05-29T13:05:52;22.70;80.00
28863;DHT22;15994;51.796;13.006;2023-05-29T13:08:21;22.90;78.80
28863;DHT22;15994;51.796;13.006;2023-05-29T13:10:49;22.90;78.80
28863;DHT22;15994;51.796;13.006;2023-05-29T13:13:16;23.10;78.90
28863;DHT22;15994;51.796;13.006;2023-05-29T13:15:43;23.10;76.40
28863;DHT22;15994;51.796;13.006;2023-05-29T13:18:10;22.80;77.40
28863;DHT22;15994;51.796;13.006;2023-05-29T13:20:39;22.70;77.20
28863;DHT22;15994;51.796;13.006;2023-05-29T13:23:05;22.80;75.40
28863;DHT22;15994;51.796;13.006;2023-05-29T13:25:35;22.70;75.70
28863;DHT22;15994;51.796;13.006;2023-05-29T13:28:03;23.00;77.70
28863;DHT22;15994;51.796;13.006;2023-05-29T13:30:30;22.80;75.10
28863;DHT22;15994;51.796;13.006;2023-05-29T13:32:57;23.00;76.40
28863;DHT22;15994;51.796;13.006;2023-05-29T13:35:24;23.40;76.70
28863;DHT22;15994;51.796;13.006;2023-05-29T13:37:51;22.90;77.20
28863;DHT22;15994;51.796;13.006;2023-05-29T13:40:18;23.20;76.90
28863;DHT22;15994;51.796;13.006;2023-05-29T13:42:46;23.20;74.50
28863;DHT22;15994;51.796;13.006;2023-05-29T13:45:13;23.10;74.30
28863;DHT22;15994;51.796;13.006;2023-05-29T13:47:40;22.80;73.70
28863;DHT22;15994;51.796;13.006;2023-05-29T13:50:08;22.70;75.20
28863;DHT22;15994;51.796;13.006;2023-05-29T13:52:35;23.20;74.70
28863;DHT22;15994;51.796;13.006;2023-05-29T13:55:01;23.50;73.90
28863;DHT22;15994;51.796;13.006;2023-05-29T13:57:33;23.20;72.80
28863;DHT22;15994;51.796;13.006;2023-05-29T14:00:03;22.90;73.30
28863;DHT22;15994;51.796;13.006;2023-05-29T14:02:31;22.80;74.20
28863;DHT22;15994;51.796;13.006;2023-05-29T14:04:57;22.90;76.20
28863;DHT22;15994;51.796;13.006;2023-05-29T14:07:24;22.90;77.00
28863;DHT22;15994;51.796;13.006;2023-05-29T14:09:51;22.80;77.40
28863;DHT22;15994;51.796;13.006;2023-05-29T14:12:19;22.60;77.60
28863;DHT22;15994;51.796;13.006;2023-05-29T14:14:45;22.80;78.10
28863;DHT22;15994;51.796;13.006;2023-05-29T14:17:14;22.90;77.10
28863;DHT22;15994;51.796;13.006;2023-05-29T14:19:41;22.80;77.20
28863;DHT22;15994;51.796;13.006;2023-05-29T14:22:11;22.70;76.90
28863;DHT22;15994;51.796;13.006;2023-05-29T14:24:38;23.00;77.70
28863;DHT22;15994;51.796;13.006;2023-05-29T14:27:07;23.10;75.30
28863;DHT22;15994;51.796;13.006;2023-05-29T14:29:34;22.80;75.60
28863;DHT22;15994;51.796;13.006;2023-05-29T14:32:00;23.00;76.10
28863;DHT22;15994;51.796;13.006;2023-05-29T14:34:27;23.00;76.10
28863;DHT22;15994;51.796;13.006;2023-05-29T14:36:54;23.10;75.10
28863;DHT22;15994;51.796;13.006;2023-05-29T14:39:21;22.80;75.90
28863;DHT22;15994;51.796;13.006;2023-05-29T14:41:48;23.00;75.90
28863;DHT22;15994;51.796;13.006;2023-05-29T14:44:15;23.40;76.60
28863;DHT22;15994;51.796;13.006;2023-05-29T14:46:42;23.10;75.70
28863;DHT22;15994;51.796;13.006;2023-05-29T14:49:09;23.10;75.90
28863;DHT22;15994;51.796;13.006;2023-05-29T14:51:36;23.20;76.10
28863;DHT22;15994;51.796;13.006;2023-05-29T14:54:04;23.20;76.00
28863;DHT22;15994;51.796;13.006;2023-05-29T14:56:30;23.20;74.80
28863;DHT22;15994;51.796;13.006;2023-05-29T14:58:57;22.60;75.90
28863;DHT22;15994;51.796;13.006;2023-05-29T15:01:24;22.70;75.80
28863;DHT22;15994;51.796;13.006;2023-05-29T15:03:51;22.50;75.70
28863;DHT22;15994;51.796;13.006;2023-05-29T15:06:18;22.70;76.40
28863;DHT22;15994;51.796;13.006;2023-05-29T15:08:50;23.00;75.70
28863;DHT22;15994;51.796;13.006;2023-05-29T15:11:16;22.90;75.90
28863;DHT22;15994;51.796;13.006;2023-05-29T15:13:44;22.80;75.80
28863;DHT22;15994;51.796;13.006;2023-05-29T15:16:12;22.90;75.30
28863;DHT22;15994;51.796;13.006;2023-05-29T15:18:38;22.50;74.50
28863;DHT22;15994;51.796;13.006;2023-05-29T15:21:07;22.60;74.50
28863;DHT22;15994;51.796;13.006;2023-05-29T15:23:33;23.00;72.90
28863;DHT22;15994;51.796;13.006;2023-05-29T15:26:01;23.50;73.10
28863;DHT22;15994;51.796;13.006;2023-05-29T15:28:28;23.60;72.80
28863;DHT22;15994;51.796;13.006;2023-05-29T15:30:55;23.70;73.50
28863;DHT22;15994;51.796;13.006;2023-05-29T15:33:22;23.20;72.70
28863;DHT22;15994;51.796;13.006;2023-05-29T15:35:49;22.90;74.30
28863;DHT22;15994;51.796;13.006;2023-05-29T15:38:17;23.00;74.10
28863;DHT22;15994;51.796;13.006;2023-05-29T15:40:44;22.80;74.00
28863;DHT22;15994;51.796;13.006;2023-05-29T15:43:10;22.40;74.30
28863;DHT22;15994;51.796;13.006;2023-05-29T15:45:37;22.20;74.50
28863;DHT22;15994;51.796;13.006;2023-05-29T15:48:05;22.40;74.90
28863;DHT22;15994;51.796;13.006;2023-05-29T15:50:32;22.50;73.50
28863;DHT22;15994;51.796;13.006;2023-05-29T15:52:59;22.80;74.40
28863;DHT22;15994;51.796;13.006;2023-05-29T15:55:25;22.60;72.90
28863;DHT22;15994;51.796;13.006;2023-05-29T15:57:52;22.90;72.60
28863;DHT22;15994;51.796;13.006;2023-05-29T16:00:19;23.40;73.60